sensor_id;sensor_type;location;lat;lon;timestamp;temperature;humidity
37844;DHT22;63793;57.632;18.292;2023-04-12T00:01:03;6.60;99.90
37844;DHT22;63793;57.632;18.292;2023-04-12T00:03:30;6.50;99.90
37844;DHT22;63793;57.632;18.292;2023-04-12T00:06:00;6.50;99.90
37844;DHT22;63793;57.632;18.292;2023-04-12T00:08:29;6.40;99.90
37844;DHT22;63793;57.632;18.292;2023-04-12T00:10:59;6.40;99.90
37844;DHT22;63793;57.632;18.292;2023-04-12T00:13:27;6.30;99.90
37844;DHT22;63793;57.632;18.292;2023-04-12T00:15:54;6.30;99.90
37844;DHT22;63793;57.632;18.292;2023-04-12T00:18:21;6.30;99.90
37844;DHT22;63793;57.632;18.292;2023-04-12T00:20:52;6.30;99.90
37844;DHT22;63793;57.632;18.292;2023-04-12T00:23:19;6.30;99.90
37844;DHT22;63793;57.632;18.292;2023-04-12T00:25:46;6.30;99.90
37844;DHT22;63793;57.632;18.292;2023-04-12T00:28:14;6.30;99.90
37844;DHT22;63793;57.632;18.292;2023-04-12T00:30:42;6.30;99.90
37844;DHT22;63793;57.632;18.292;2023-04-12T00:33:09;6.30;99.90
37844;DHT22;63793;57.632;18.292;2023-04-12T00:35:36;6.20;99.90
37844;DHT22;63793;57.632;18.292;2023-04-12T00:38:03;6.20;99.90
37844;DHT22;63793;57.632;18.292;2023-04-12T00:40:32;6.10;99.90
37844;DHT22;63793;57.632;18.292;2023-04-12T00:42:59;6.10;99.90
37844;DHT22;63793;57.632;18.292;2023-04-12T00:45:26;6.10;99.90
37844;DHT22;63793;57.632;18.292;2023-04-12T00:47:54;6.00;99.90
37844;DHT22;63793;57.632;18.292;2023-04-12T00:50:22;6.00;99.90
37844;DHT22;63793;57.632;18.292;2023-04-12T00:52:50;6.00;99.90
37844;DHT22;63793;57.632;18.292;2023-04-12T00:55:17;6.00;99.90
37844;DHT22;63793;57.632;18.292;2023-04-12T00:57:44;6.00;99.90
37844;DHT22;63793;57.632;18.292;2023-04-12T01:00:12;5.90;99.90
37844;DHT22;63793;57.632;18.292;2023-04-12T01:02:44;5.90;99.90
37844;DHT22;63793;57.632;18.292;2023-04-12T01:05:18;5.80;99.90
37844;DHT22;63793;57.632;18.292;2023-04-12T01:11:25;5.80;99.90
37844;DHT22;63793;57.632;18.292;2023-04-12T01:16:46;5.70;99.90
37844;DHT22;63793;57.632;18.292;2023-04-12T01:19:40;5.70;99.90
37844;DHT22;63793;57.632;18.292;2023-04-12T01:27:55;5.60;99.90
37844;DHT22;63793;57.632;18.292;2023-04-12T01:30:25;5.60;99.90
37844;DHT22;63793;57.632;18.292;2023-04-12T01:32:55;5.50;99.90
37844;DHT22;63793;57.632;18.292;2023-04-12T01:35:27;5.50;99.90
37844;DHT22;63793;57.632;18.292;2023-04-12T01:37:57;5.50;99.90
37844;DHT22;63793;57.632;18.292;2023-04-12T01:40:26;5.50;99.90
37844;DHT22;63793;57.632;18.292;2023-04-12T01:45:31;5.40;99.90
37844;DHT22;63793;57.632;18.292;2023-04-12T01:47:59;5.40;99.90
37844;DHT22;63793;57.632;18.292;2023-04-12T01:53:44;5.40;99.90
37844;DHT22;63793;57.632;18.292;2023-04-12T01:56:16;5.40;99.90
37844;DHT22;63793;57.632;18.292;2023-04-12T01:58:45;5.40;99.90
37844;DHT22;63793;57.632;18.292;2023-04-12T02:01:14;5.40;99.90
37844;DHT22;63793;57.632;18.292;2023-04-12T02:03:42;5.30;99.90
37844;DHT22;63793;57.632;18.292;2023-04-12T02:06:10;5.30;99.90
37844;DHT22;63793;57.632;18.292;2023-04-12T02:08:37;5.30;99.90
37844;DHT22;63793;57.632;18.292;2023-04-12T02:11:10;5.30;99.90
37844;DHT22;63793;57.632;18.292;2023-04-12T02:13:37;5.30;99.90
37844;DHT22;63793;57.632;18.292;2023-04-12T02:16:05;5.30;99.90
37844;DHT22;63793;57.632;18.292;2023-04-12T02:18:33;5.20;99.90
37844;DHT22;63793;57.632;18.292;2023-04-12T02:21:04;5.20;99.90
37844;DHT22;63793;57.632;18.292;2023-04-12T02:23:33;5.20;99.90
37844;DHT22;63793;57.632;18.292;2023-04-12T02:26:00;5.20;99.90
37844;DHT22;63793;57.632;18.292;2023-04-12T02:28:27;5.10;99.90
37844;DHT22;63793;57.632;18.292;2023-04-12T02:30:54;5.10;99.90
37844;DHT22;63793;57.632;18.292;2023-04-12T02:33:22;5.10;99.90
37844;DHT22;63793;57.632;18.292;2023-04-12T02:35:53;5.00;99.90
37844;DHT22;63793;57.632;18.292;2023-04-12T02:38:22;5.00;99.90
37844;DHT22;63793;57.632;18.292;2023-04-12T02:40:49;5.00;99.90
37844;DHT22;63793;57.632;18.292;2023-04-12T02:43:17;5.00;99.90
37844;DHT22;63793;57.632;18.292;2023-04-12T02:45:48;5.00;99.90
37844;DHT22;63793;57.632;18.292;2023-04-12T02:48:15;4.90;99.90
37844;DHT22;63793;57.632;18.292;2023-04-12T02:50:43;4.90;99.90
37844;DHT22;63793;57.632;18.292;2023-04-12T02:53:16;4.90;99.90
37844;DHT22;63793;57.632;18.292;2023-04-12T02:55:48;4.90;99.90
37844;DHT22;63793;57.632;18.292;2023-04-12T02:58:20;4.90;99.90
37844;DHT22;63793;57.632;18.292;2023-04-12T03:00:49;4.80;99.90
37844;DHT22;63793;57.632;18.292;2023-04-12T03:03:23;4.80;99.90
37844;DHT22;63793;57.632;18.292;2023-04-12T03:05:53;4.80;99.90
37844;DHT22;63793;57.632;18.292;2023-04-12T03:08:21;4.80;99.90
37844;DHT22;63793;57.632;18.292;2023-04-12T03:10:51;4.70;99.90
37844;DHT22;63793;57.632;18.292;2023-04-12T03:13:19;4.80;99.90
37844;DHT22;63793;57.632;18.292;2023-04-12T03:15:53;4.70;99.90
37844;DHT22;63793;57.632;18.292;2023-04-12T03:18:21;4.70;99.90
37844;DHT22;63793;57.632;18.292;2023-04-12T03:20:51;4.70;99.90
37844;DHT22;63793;57.632;18.292;2023-04-12T03:23:18;4.60;99.90
37844;DHT22;63793;57.632;18.292;2023-04-12T03:25:52;4.60;99.90
37844;DHT22;63793;57.632;18.292;2023-04-12T03:28:32;4.60;99.90
37844;DHT22;63793;57.632;18.292;2023-04-12T03:31:02;4.60;99.90
37844;DHT22;63793;57.632;18.292;2023-04-12T03:33:44;4.60;99.90
37844;DHT22;63793;57.632;18.292;2023-04-12T03:36:19;4.60;99.90
37844;DHT22;63793;57.632;18.292;2023-04-12T03:38:52;4.60;99.90
37844;DHT22;63793;57.632;18.292;2023-04-12T03:41:22;4.60;99.90
37844;DHT22;63793;57.632;18.292;2023-04-12T03:43:49;4.60;99.90
37844;DHT22;63793;57.632;18.292;2023-04-12T03:46:17;4.60;99.90
37844;DHT22;63793;57.632;18.292;2023-04-12T03:48:51;4.50;99.90
37844;DHT22;63793;57.632;18.292;2023-04-12T03:51:20;4.60;99.90
37844;DHT22;63793;57.632;18.292;2023-04-12T03:53:47;4.50;99.90
37844;DHT22;63793;57.632;18.292;2023-04-12T03:56:14;4.50;99.90
37844;DHT22;63793;57.632;18.292;2023-04-12T03:58:46;4.50;99.90
37844;DHT22;63793;57.632;18.292;2023-04-12T04:01:14;4.50;99.90
37844;DHT22;63793;57.632;18.292;2023-04-12T04:03:43;4.60;99.90
37844;DHT22;63793;57.632;18.292;2023-04-12T04:06:19;4.60;99.90
37844;DHT22;63793;57.632;18.292;2023-04-12T04:08:46;4.50;99.90
37844;DHT22;63793;57.632;18.292;2023-04-12T04:11:13;4.50;99.90
37844;DHT22;63793;57.632;18.292;2023-04-12T04:13:43;4.50;99.90
37844;DHT22;63793;57.632;18.292;2023-04-12T04:16:17;4.50;99.90
37844;DHT22;63793;57.632;18.292;2023-04-12T04:18:45;4.40;99.90
37844;DHT22;63793;57.632;18.292;2023-04-12T04:21:14;4.40;99.90
37844;DHT22;63793;57.632;18.292;2023-04-12T04:23:41;4.40;99.90
37844;DHT22;63793;57.632;18.292;2023-04-12T04:26:11;4.40;99.90
37844;DHT22;63793;57.632;18.292;2023-04-12T04:28:45;4.40;99.90
37844;DHT22;63793;57.632;18.292;2023-04-12T04:31:16;4.50;99.90
37844;DHT22;63793;57.632;18.292;2023-04-12T04:33:47;4.40;99.90
37844;DHT22;63793;57.632;18.292;2023-04-12T04:36:15;4.50;99.90
37844;DHT22;63793;57.632;18.292;2023-04-12T04:38:47;4.40;99.90
37844;DHT22;63793;57.632;18.292;2023-04-12T04:41:25;4.50;99.90
37844;DHT22;63793;57.632;18.292;2023-04-12T04:43:56;4.50;99.90
37844;DHT22;63793;57.632;18.292;2023-04-12T04:46:26;4.40;99.90
37844;DHT22;63793;57.632;18.292;2023-04-12T04:48:56;4.50;99.90
37844;DHT22;63793;57.632;18.292;2023-04-12T04:51:24;4.50;99.90
37844;DHT22;63793;57.632;18.292;2023-04-12T04:53:53;4.50;99.90
37844;DHT22;63793;57.632;18.292;2023-04-12T04:56:20;4.50;99.90
37844;DHT22;63793;57.632;18.292;2023-04-12T04:58:52;4.50;99.90
37844;DHT22;63793;57.632;18.292;2023-04-12T05:01:23;4.60;99.90
37844;DHT22;63793;57.632;18.292;2023-04-12T05:03:57;4.60;99.90
37844;DHT22;63793;57.632;18.292;2023-04-12T05:06:26;4.70;99.90
37844;DHT22;63793;57.632;18.292;2023-04-12T05:08:54;4.70;99.90
37844;DHT22;63793;57.632;18.292;2023-04-12T05:11:22;4.80;99.90
37844;DHT22;63793;57.632;18.292;2023-04-12T05:13:49;4.80;99.90
37844;DHT22;63793;57.632;18.292;2023-04-12T05:16:17;4.90;99.90
37844;DHT22;63793;57.632;18.292;2023-04-12T05:18:44;5.00;99.90
37844;DHT22;63793;57.632;18.292;2023-04-12T05:21:11;5.00;99.90
37844;DHT22;63793;57.632;18.292;2023-04-12T05:23:43;5.00;99.90
37844;DHT22;63793;57.632;18.292;2023-04-12T05:26:11;5.10;99.90
37844;DHT22;63793;57.632;18.292;2023-04-12T05:28:41;5.10;99.90
37844;DHT22;63793;57.632;18.292;2023-04-12T05:31:09;5.10;99.90
37844;DHT22;63793;57.632;18.292;2023-04-12T05:33:37;5.20;99.90
37844;DHT22;63793;57.632;18.292;2023-04-12T05:36:05;5.30;99.90
37844;DHT22;63793;57.632;18.292;2023-04-12T05:38:32;5.30;99.90
37844;DHT22;63793;57.632;18.292;2023-04-12T05:41:03;5.40;99.90
37844;DHT22;63793;57.632;18.292;2023-04-12T05:43:32;5.40;99.90
37844;DHT22;63793;57.632;18.292;2023-04-12T05:45:59;5.50;99.90
37844;DHT22;63793;57.632;18.292;2023-04-12T05:48:27;5.50;99.90
37844;DHT22;63793;57.632;18.292;2023-04-12T05:50:56;5.60;99.90
37844;DHT22;63793;57.632;18.292;2023-04-12T05:53:22;5.60;99.90
37844;DHT22;63793;57.632;18.292;2023-04-12T05:55:49;5.60;99.90
37844;DHT22;63793;57.632;18.292;2023-04-12T05:58:18;5.70;99.90
37844;DHT22;63793;57.632;18.292;2023-04-12T06:00:46;5.80;99.90
37844;DHT22;63793;57.632;18.292;2023-04-12T06:03:15;5.80;99.90
37844;DHT22;63793;57.632;18.292;2023-04-12T06:05:43;5.90;99.90
37844;DHT22;63793;57.632;18.292;2023-04-12T06:08:10;6.00;99.90
37844;DHT22;63793;57.632;18.292;2023-04-12T06:10:40;6.00;99.90
37844;DHT22;63793;57.632;18.292;2023-04-12T06:13:08;6.10;99.90
37844;DHT22;63793;57.632;18.292;2023-04-12T06:15:38;6.20;99.90
37844;DHT22;63793;57.632;18.292;2023-04-12T06:18:06;6.30;99.90
37844;DHT22;63793;57.632;18.292;2023-04-12T06:20:33;6.40;99.90
37844;DHT22;63793;57.632;18.292;2023-04-12T06:23:00;6.50;99.90
37844;DHT22;63793;57.632;18.292;2023-04-12T06:25:27;6.60;99.90
37844;DHT22;63793;57.632;18.292;2023-04-12T06:27:56;6.60;99.90
37844;DHT22;63793;57.632;18.292;2023-04-12T06:30:24;6.70;99.90
37844;DHT22;63793;57.632;18.292;2023-04-12T06:32:52;6.70;99.90
37844;DHT22;63793;57.632;18.292;2023-04-12T06:35:21;6.80;99.90
37844;DHT22;63793;57.632;18.292;2023-04-12T06:37:48;6.90;99.90
37844;DHT22;63793;57.632;18.292;2023-04-12T06:40:15;7.00;99.90
37844;DHT22;63793;57.632;18.292;2023-04-12T06:42:42;7.10;99.90
37844;DHT22;63793;57.632;18.292;2023-04-12T06:45:09;7.20;99.90
37844;DHT22;63793;57.632;18.292;2023-04-12T06:47:36;7.30;99.90
37844;DHT22;63793;57.632;18.292;2023-04-12T06:50:04;7.40;99.90
37844;DHT22;63793;57.632;18.292;2023-04-12T06:52:32;7.50;99.90
37844;DHT22;63793;57.632;18.292;2023-04-12T06:54:59;7.60;99.90
37844;DHT22;63793;57.632;18.292;2023-04-12T06:57:26;7.70;99.90
37844;DHT22;63793;57.632;18.292;2023-04-12T06:59:53;7.80;99.90
37844;DHT22;63793;57.632;18.292;2023-04-12T07:02:19;7.90;99.90
37844;DHT22;63793;57.632;18.292;2023-04-12T07:04:51;8.00;99.90
37844;DHT22;63793;57.632;18.292;2023-04-12T07:07:18;8.20;99.90
37844;DHT22;63793;57.632;18.292;2023-04-12T07:09:46;8.30;99.90
37844;DHT22;63793;57.632;18.292;2023-04-12T07:12:13;8.40;99.90
37844;DHT22;63793;57.632;18.292;2023-04-12T07:14:40;8.50;99.90
37844;DHT22;63793;57.632;18.292;2023-04-12T07:17:10;8.60;99.90
37844;DHT22;63793;57.632;18.292;2023-04-12T07:19:37;8.70;99.90
37844;DHT22;63793;57.632;18.292;2023-04-12T07:22:04;8.80;99.90
37844;DHT22;63793;57.632;18.292;2023-04-12T07:24:31;8.90;99.90
37844;DHT22;63793;57.632;18.292;2023-04-12T07:26:58;9.00;99.90
37844;DHT22;63793;57.632;18.292;2023-04-12T07:29:25;9.10;99.90
37844;DHT22;63793;57.632;18.292;2023-04-12T07:31:52;9.20;99.90
37844;DHT22;63793;57.632;18.292;2023-04-12T07:34:19;9.40;99.90
37844;DHT22;63793;57.632;18.292;2023-04-12T07:36:46;9.50;99.90
37844;DHT22;63793;57.632;18.292;2023-04-12T07:39:13;9.50;99.90
37844;DHT22;63793;57.632;18.292;2023-04-12T07:41:41;9.40;99.90
37844;DHT22;63793;57.632;18.292;2023-04-12T07:44:11;9.20;99.90
37844;DHT22;63793;57.632;18.292;2023-04-12T07:46:38;9.10;99.90
37844;DHT22;63793;57.632;18.292;2023-04-12T07:49:07;9.20;99.90
37844;DHT22;63793;57.632;18.292;2023-04-12T07:51:36;9.20;99.90
37844;DHT22;63793;57.632;18.292;2023-04-12T07:54:03;9.20;99.90
37844;DHT22;63793;57.632;18.292;2023-04-12T07:56:33;9.30;99.90
37844;DHT22;63793;57.632;18.292;2023-04-12T07:59:00;9.40;99.90
37844;DHT22;63793;57.632;18.292;2023-04-12T08:01:27;9.60;99.90
37844;DHT22;63793;57.632;18.292;2023-04-12T08:03:54;9.70;99.90
37844;DHT22;63793;57.632;18.292;2023-04-12T08:06:22;9.80;99.90
37844;DHT22;63793;57.632;18.292;2023-04-12T08:08:48;9.80;99.90
37844;DHT22;63793;57.632;18.292;2023-04-12T08:11:15;9.90;99.90
37844;DHT22;63793;57.632;18.292;2023-04-12T08:13:42;10.00;99.90
37844;DHT22;63793;57.632;18.292;2023-04-12T08:16:09;10.20;99.90
37844;DHT22;63793;57.632;18.292;2023-04-12T08:18:36;10.30;99.90
37844;DHT22;63793;57.632;18.292;2023-04-12T08:21:03;10.40;99.90
37844;DHT22;63793;57.632;18.292;2023-04-12T08:23:30;10.50;99.90
37844;DHT22;63793;57.632;18.292;2023-04-12T08:25:56;10.50;99.90
37844;DHT22;63793;57.632;18.292;2023-04-12T08:28:29;10.60;99.90
37844;DHT22;63793;57.632;18.292;2023-04-12T08:30:57;10.70;99.90
37844;DHT22;63793;57.632;18.292;2023-04-12T08:33:25;11.00;99.90
37844;DHT22;63793;57.632;18.292;2023-04-12T08:35:52;11.20;99.90
37844;DHT22;63793;57.632;18.292;2023-04-12T08:38:19;11.40;99.90
37844;DHT22;63793;57.632;18.292;2023-04-12T08:40:56;11.60;99.90
37844;DHT22;63793;57.632;18.292;2023-04-12T08:43:27;11.80;99.90
37844;DHT22;63793;57.632;18.292;2023-04-12T08:45:55;11.80;99.90
37844;DHT22;63793;57.632;18.292;2023-04-12T08:48:24;11.80;99.90
37844;DHT22;63793;57.632;18.292;2023-04-12T08:50:52;11.90;99.90
37844;DHT22;63793;57.632;18.292;2023-04-12T08:53:20;12.10;99.90
37844;DHT22;63793;57.632;18.292;2023-04-12T08:55:47;12.30;99.90
37844;DHT22;63793;57.632;18.292;2023-04-12T08:58:14;12.50;99.90
37844;DHT22;63793;57.632;18.292;2023-04-12T09:00:41;12.70;99.90
37844;DHT22;63793;57.632;18.292;2023-04-12T09:03:09;12.80;99.90
37844;DHT22;63793;57.632;18.292;2023-04-12T09:05:37;13.00;99.90
37844;DHT22;63793;57.632;18.292;2023-04-12T09:08:04;13.10;99.90
37844;DHT22;63793;57.632;18.292;2023-04-12T09:10:38;12.90;99.90
37844;DHT22;63793;57.632;18.292;2023-04-12T09:13:05;11.80;99.90
37844;DHT22;63793;57.632;18.292;2023-04-12T09:15:32;11.30;99.90
37844;DHT22;63793;57.632;18.292;2023-04-12T09:18:10;10.70;99.90
37844;DHT22;63793;57.632;18.292;2023-04-12T09:20:38;9.50;99.90
37844;DHT22;63793;57.632;18.292;2023-04-12T09:23:20;9.10;99.90
37844;DHT22;63793;57.632;18.292;2023-04-12T09:25:47;8.90;99.90
37844;DHT22;63793;57.632;18.292;2023-04-12T09:28:27;9.00;99.90
37844;DHT22;63793;57.632;18.292;2023-04-12T09:30:56;8.70;99.90
37844;DHT22;63793;57.632;18.292;2023-04-12T09:33:35;8.60;99.90
37844;DHT22;63793;57.632;18.292;2023-04-12T09:36:04;8.60;99.90
37844;DHT22;63793;57.632;18.292;2023-04-12T09:38:32;8.80;99.90
37844;DHT22;63793;57.632;18.292;2023-04-12T09:41:19;8.80;99.90
37844;DHT22;63793;57.632;18.292;2023-04-12T09:43:52;8.60;99.90
37844;DHT22;63793;57.632;18.292;2023-04-12T09:46:19;8.40;99.90
37844;DHT22;63793;57.632;18.292;2023-04-12T09:48:53;8.20;99.90
37844;DHT22;63793;57.632;18.292;2023-04-12T09:51:28;8.30;99.90
37844;DHT22;63793;57.632;18.292;2023-04-12T09:54:03;8.30;99.90
37844;DHT22;63793;57.632;18.292;2023-04-12T09:56:33;8.30;99.90
37844;DHT22;63793;57.632;18.292;2023-04-12T09:59:03;8.40;99.90
37844;DHT22;63793;57.632;18.292;2023-04-12T10:01:35;8.40;99.90
37844;DHT22;63793;57.632;18.292;2023-04-12T10:04:05;8.50;99.90
37844;DHT22;63793;57.632;18.292;2023-04-12T10:06:35;8.60;99.90
37844;DHT22;63793;57.632;18.292;2023-04-12T10:09:07;8.70;99.90
37844;DHT22;63793;57.632;18.292;2023-04-12T10:11:34;8.70;99.90
37844;DHT22;63793;57.632;18.292;2023-04-12T10:14:03;8.60;99.90
37844;DHT22;63793;57.632;18.292;2023-04-12T10:16:33;8.80;99.90
37844;DHT22;63793;57.632;18.292;2023-04-12T10:19:03;8.90;99.90
37844;DHT22;63793;57.632;18.292;2023-04-12T10:21:30;9.00;99.90
37844;DHT22;63793;57.632;18.292;2023-04-12T10:23:57;8.90;99.90
37844;DHT22;63793;57.632;18.292;2023-04-12T10:26:25;8.90;99.90
37844;DHT22;63793;57.632;18.292;2023-04-12T10:29:25;8.90;99.90
37844;DHT22;63793;57.632;18.292;2023-04-12T10:31:54;9.00;99.90
37844;DHT22;63793;57.632;18.292;2023-04-12T10:34:29;8.70;99.90
37844;DHT22;63793;57.632;18.292;2023-04-12T10:36:58;8.80;99.90
37844;DHT22;63793;57.632;18.292;2023-04-12T10:39:42;8.90;99.90
37844;DHT22;63793;57.632;18.292;2023-04-12T10:44:55;9.10;99.90
37844;DHT22;63793;57.632;18.292;2023-04-12T10:50:24;9.50;99.90
37844;DHT22;63793;57.632;18.292;2023-04-12T10:55:38;9.60;99.90
37844;DHT22;63793;57.632;18.292;2023-04-12T10:58:05;9.60;99.90
37844;DHT22;63793;57.632;18.292;2023-04-12T11:03:21;9.80;99.90
37844;DHT22;63793;57.632;18.292;2023-04-12T11:09:04;11.20;99.90
37844;DHT22;63793;57.632;18.292;2023-04-12T11:11:33;12.20;99.90
37844;DHT22;63793;57.632;18.292;2023-04-12T11:14:00;13.00;99.90
37844;DHT22;63793;57.632;18.292;2023-04-12T11:16:28;13.50;99.90
37844;DHT22;63793;57.632;18.292;2023-04-12T11:18:55;14.00;99.90
37844;DHT22;63793;57.632;18.292;2023-04-12T11:21:23;14.40;99.90
37844;DHT22;63793;57.632;18.292;2023-04-12T11:23:51;14.80;99.90
37844;DHT22;63793;57.632;18.292;2023-04-12T11:26:19;15.10;99.90
37844;DHT22;63793;57.632;18.292;2023-04-12T11:28:47;15.30;99.90
37844;DHT22;63793;57.632;18.292;2023-04-12T11:31:19;13.70;99.90
37844;DHT22;63793;57.632;18.292;2023-04-12T11:33:47;13.20;99.90
37844;DHT22;63793;57.632;18.292;2023-04-12T11:36:14;12.90;99.90
37844;DHT22;63793;57.632;18.292;2023-04-12T11:38:42;12.70;99.90
37844;DHT22;63793;57.632;18.292;2023-04-12T11:41:13;12.30;99.90
37844;DHT22;63793;57.632;18.292;2023-04-12T11:43:40;12.40;99.90
37844;DHT22;63793;57.632;18.292;2023-04-12T11:46:08;12.40;99.90
37844;DHT22;63793;57.632;18.292;2023-04-12T11:48:35;12.90;99.90
37844;DHT22;63793;57.632;18.292;2023-04-12T11:51:34;13.40;99.90
37844;DHT22;63793;57.632;18.292;2023-04-12T11:54:01;14.10;99.90
37844;DHT22;63793;57.632;18.292;2023-04-12T11:56:30;14.80;99.90
37844;DHT22;63793;57.632;18.292;2023-04-12T11:58:58;15.20;99.90
37844;DHT22;63793;57.632;18.292;2023-04-12T12:01:25;15.50;99.90
37844;DHT22;63793;57.632;18.292;2023-04-12T12:03:54;15.80;99.90
37844;DHT22;63793;57.632;18.292;2023-04-12T12:06:22;14.90;99.90
37844;DHT22;63793;57.632;18.292;2023-04-12T12:08:50;14.40;99.90
37844;DHT22;63793;57.632;18.292;2023-04-12T12:11:22;14.40;99.90
37844;DHT22;63793;57.632;18.292;2023-04-12T12:13:51;14.80;99.90
37844;DHT22;63793;57.632;18.292;2023-04-12T12:16:27;15.30;99.90
37844;DHT22;63793;57.632;18.292;2023-04-12T12:18:55;15.80;99.90
37844;DHT22;63793;57.632;18.292;2023-04-12T12:21:22;16.10;99.90
37844;DHT22;63793;57.632;18.292;2023-04-12T12:23:49;16.40;99.90
37844;DHT22;63793;57.632;18.292;2023-04-12T12:26:24;16.50;99.90
37844;DHT22;63793;57.632;18.292;2023-04-12T12:28:53;16.80;99.90
37844;DHT22;63793;57.632;18.292;2023-04-12T12:31:22;16.90;99.90
37844;DHT22;63793;57.632;18.292;2023-04-12T12:33:53;16.90;99.90
37844;DHT22;63793;57.632;18.292;2023-04-12T12:39:09;16.90;99.90
37844;DHT22;63793;57.632;18.292;2023-04-12T12:41:37;17.00;99.90
37844;DHT22;63793;57.632;18.292;2023-04-12T12:44:04;17.00;99.90
37844;DHT22;63793;57.632;18.292;2023-04-12T12:46:33;17.00;99.90
37844;DHT22;63793;57.632;18.292;2023-04-12T12:49:03;17.00;99.90
37844;DHT22;63793;57.632;18.292;2023-04-12T12:51:30;16.90;99.90
37844;DHT22;63793;57.632;18.292;2023-04-12T12:53:57;16.90;99.90
37844;DHT22;63793;57.632;18.292;2023-04-12T12:56:24;16.80;99.90
37844;DHT22;63793;57.632;18.292;2023-04-12T12:58:51;16.70;99.90
37844;DHT22;63793;57.632;18.292;2023-04-12T13:01:18;16.60;99.90
37844;DHT22;63793;57.632;18.292;2023-04-12T13:03:45;16.40;99.90
37844;DHT22;63793;57.632;18.292;2023-04-12T13:06:12;16.20;99.90
37844;DHT22;63793;57.632;18.292;2023-04-12T13:08:39;16.10;99.90
37844;DHT22;63793;57.632;18.292;2023-04-12T13:11:06;16.20;99.90
37844;DHT22;63793;57.632;18.292;2023-04-12T13:13:33;16.20;99.90
37844;DHT22;63793;57.632;18.292;2023-04-12T13:15:59;16.40;99.90
37844;DHT22;63793;57.632;18.292;2023-04-12T13:18:26;16.40;99.90
37844;DHT22;63793;57.632;18.292;2023-04-12T13:20:53;16.50;99.90
37844;DHT22;63793;57.632;18.292;2023-04-12T13:23:20;16.50;99.90
37844;DHT22;63793;57.632;18.292;2023-04-12T13:25:47;16.50;99.90
37844;DHT22;63793;57.632;18.292;2023-04-12T13:28:14;16.70;99.90
37844;DHT22;63793;57.632;18.292;2023-04-12T13:30:42;16.80;99.90
37844;DHT22;63793;57.632;18.292;2023-04-12T13:33:09;17.00;99.90
37844;DHT22;63793;57.632;18.292;2023-04-12T13:35:40;17.10;99.90
37844;DHT22;63793;57.632;18.292;2023-04-12T13:38:07;16.90;99.90
37844;DHT22;63793;57.632;18.292;2023-04-12T13:40:34;16.80;99.90
37844;DHT22;63793;57.632;18.292;2023-04-12T13:43:01;16.60;99.90
37844;DHT22;63793;57.632;18.292;2023-04-12T13:45:28;16.80;99.90
37844;DHT22;63793;57.632;18.292;2023-04-12T13:47:57;17.10;99.90
37844;DHT22;63793;57.632;18.292;2023-04-12T13:50:24;17.20;99.90
37844;DHT22;63793;57.632;18.292;2023-04-12T13:52:51;17.20;99.90
37844;DHT22;63793;57.632;18.292;2023-04-12T13:55:18;17.30;99.90
37844;DHT22;63793;57.632;18.292;2023-04-12T13:57:45;17.30;99.90
37844;DHT22;63793;57.632;18.292;2023-04-12T14:00:12;17.30;99.90
37844;DHT22;63793;57.632;18.292;2023-04-12T14:02:39;17.40;99.90
37844;DHT22;63793;57.632;18.292;2023-04-12T14:05:07;17.60;99.90
37844;DHT22;63793;57.632;18.292;2023-04-12T14:07:34;17.60;99.90
37844;DHT22;63793;57.632;18.292;2023-04-12T14:10:01;17.60;99.90
37844;DHT22;63793;57.632;18.292;2023-04-12T14:12:29;17.60;99.90
37844;DHT22;63793;57.632;18.292;2023-04-12T14:14:56;17.70;99.90
37844;DHT22;63793;57.632;18.292;2023-04-12T14:17:23;17.80;99.90
37844;DHT22;63793;57.632;18.292;2023-04-12T14:19:50;17.70;99.70
37844;DHT22;63793;57.632;18.292;2023-04-12T14:22:17;17.70;99.90
37844;DHT22;63793;57.632;18.292;2023-04-12T14:24:44;17.80;99.90
37844;DHT22;63793;57.632;18.292;2023-04-12T14:27:11;17.80;99.90
37844;DHT22;63793;57.632;18.292;2023-04-12T14:29:38;17.90;99.90
37844;DHT22;63793;57.632;18.292;2023-04-12T14:32:05;18.00;99.90
37844;DHT22;63793;57.632;18.292;2023-04-12T14:34:32;18.10;99.90
37844;DHT22;63793;57.632;18.292;2023-04-12T14:36:59;18.10;99.20
37844;DHT22;63793;57.632;18.292;2023-04-12T14:39:26;18.10;99.50
37844;DHT22;63793;57.632;18.292;2023-04-12T14:41:53;18.20;99.80
37844;DHT22;63793;57.632;18.292;2023-04-12T14:44:20;18.20;98.90
37844;DHT22;63793;57.632;18.292;2023-04-12T14:46:51;18.20;99.30
37844;DHT22;63793;57.632;18.292;2023-04-12T14:49:18;18.30;99.00
37844;DHT22;63793;57.632;18.292;2023-04-12T14:51:44;18.30;99.50
37844;DHT22;63793;57.632;18.292;2023-04-12T14:54:11;18.20;98.70
37844;DHT22;63793;57.632;18.292;2023-04-12T14:56:38;18.30;99.00
37844;DHT22;63793;57.632;18.292;2023-04-12T14:59:16;18.40;98.80
37844;DHT22;63793;57.632;18.292;2023-04-12T15:01:43;18.50;98.70
37844;DHT22;63793;57.632;18.292;2023-04-12T15:04:10;18.20;98.60
37844;DHT22;63793;57.632;18.292;2023-04-12T15:06:38;17.80;98.40
37844;DHT22;63793;57.632;18.292;2023-04-12T15:09:08;17.80;99.00
37844;DHT22;63793;57.632;18.292;2023-04-12T15:11:35;17.70;98.80
37844;DHT22;63793;57.632;18.292;2023-04-12T15:14:04;17.60;98.00
37844;DHT22;63793;57.632;18.292;2023-04-12T15:16:33;17.80;98.60
37844;DHT22;63793;57.632;18.292;2023-04-12T15:19:00;17.90;98.90
37844;DHT22;63793;57.632;18.292;2023-04-12T15:21:39;18.00;98.30
37844;DHT22;63793;57.632;18.292;2023-04-12T15:24:06;18.10;97.50
37844;DHT22;63793;57.632;18.292;2023-04-12T15:26:33;18.10;97.10
37844;DHT22;63793;57.632;18.292;2023-04-12T15:29:02;18.30;97.70
37844;DHT22;63793;57.632;18.292;2023-04-12T15:31:29;18.50;97.20
37844;DHT22;63793;57.632;18.292;2023-04-12T15:33:56;18.50;97.60
37844;DHT22;63793;57.632;18.292;2023-04-12T15:36:23;18.40;97.20
37844;DHT22;63793;57.632;18.292;2023-04-12T15:38:59;18.50;97.50
37844;DHT22;63793;57.632;18.292;2023-04-12T15:41:29;18.50;97.40
37844;DHT22;63793;57.632;18.292;2023-04-12T15:43:58;18.40;97.40
37844;DHT22;63793;57.632;18.292;2023-04-12T15:46:25;18.40;97.60
37844;DHT22;63793;57.632;18.292;2023-04-12T15:48:52;18.50;97.30
37844;DHT22;63793;57.632;18.292;2023-04-12T15:51:19;18.50;97.30
37844;DHT22;63793;57.632;18.292;2023-04-12T15:53:46;18.30;96.90
37844;DHT22;63793;57.632;18.292;2023-04-12T15:56:13;18.40;97.50
37844;DHT22;63793;57.632;18.292;2023-04-12T15:58:42;18.20;97.40
37844;DHT22;63793;57.632;18.292;2023-04-12T16:01:10;18.20;96.80
37844;DHT22;63793;57.632;18.292;2023-04-12T16:03:37;18.00;97.10
37844;DHT22;63793;57.632;18.292;2023-04-12T16:06:04;17.70;97.50
37844;DHT22;63793;57.632;18.292;2023-04-12T16:08:31;17.80;98.40
37844;DHT22;63793;57.632;18.292;2023-04-12T16:10:58;17.70;98.20